sensor_id;sensor_type;location;lat;lon;timestamp;P1;durP1;ratioP1;P2;durP2;ratioP2
13048;SDS011;6591;51.446;5.404;2023-11-21T00:00:35;12.40;;;8.37;;
13048;SDS011;6591;51.446;5.404;2023-11-21T00:03:02;10.67;;;7.80;;
13048;SDS011;6591;51.446;5.404;2023-11-21T00:05:30;10.43;;;8.03;;
13048;SDS011;6591;51.446;5.404;2023-11-21T00:07:58;11.67;;;7.93;;
13048;SDS011;6591;51.446;5.404;2023-11-21T00:10:25;11.13;;;8.57;;
13048;SDS011;6591;51.446;5.404;2023-11-21T00:12:53;11.67;;;7.97;;
13048;SDS011;6591;51.446;5.404;2023-11-21T00:15:21;11.90;;;8.33;;
13048;SDS011;6591;51.446;5.404;2023-11-21T00:17:48;9.93;;;8.13;;
13048;SDS011;6591;51.446;5.404;2023-11-21T00:20:16;12.67;;;8.53;;
13048;SDS011;6591;51.446;5.404;2023-11-21T00:22:43;10.50;;;8.40;;
13048;SDS011;6591;51.446;5.404;2023-11-21T00:25:10;9.33;;;7.97;;
13048;SDS011;6591;51.446;5.404;2023-11-21T00:27:41;14.73;;;9.40;;
13048;SDS011;6591;51.446;5.404;2023-11-21T00:30:08;11.93;;;9.23;;
13048;SDS011;6591;51.446;5.404;2023-11-21T00:32:36;10.33;;;8.07;;
13048;SDS011;6591;51.446;5.404;2023-11-21T00:35:04;14.17;;;9.07;;
13048;SDS011;6591;51.446;5.404;2023-11-21T00:37:32;12.17;;;9.17;;
13048;SDS011;6591;51.446;5.404;2023-11-21T00:39:59;12.37;;;9.03;;
13048;SDS011;6591;51.446;5.404;2023-11-21T00:42:33;12.47;;;8.63;;
13048;SDS011;6591;51.446;5.404;2023-11-21T00:45:00;13.07;;;9.03;;
13048;SDS011;6591;51.446;5.404;2023-11-21T00:47:27;20.07;;;9.57;;
13048;SDS011;6591;51.446;5.404;2023-11-21T00:49:54;11.50;;;9.33;;
13048;SDS011;6591;51.446;5.404;2023-11-21T00:52:21;10.87;;;8.37;;
13048;SDS011;6591;51.446;5.404;2023-11-21T00:54:49;11.97;;;8.33;;
13048;SDS011;6591;51.446;5.404;2023-11-21T00:57:16;19.37;;;9.47;;
13048;SDS011;6591;51.446;5.404;2023-11-21T00:59:43;60.17;;;13.23;;
13048;SDS011;6591;51.446;5.404;2023-11-21T01:02:10;13.57;;;8.67;;
13048;SDS011;6591;51.446;5.404;2023-11-21T01:04:37;19.07;;;9.60;;
13048;SDS011;6591;51.446;5.404;2023-11-21T01:07:04;36.73;;;9.03;;
13048;SDS011;6591;51.446;5.404;2023-11-21T01:09:32;15.53;;;7.50;;
13048;SDS011;6591;51.446;5.404;2023-11-21T01:11:59;52.13;;;12.60;;
13048;SDS011;6591;51.446;5.404;2023-11-21T01:14:26;11.03;;;8.13;;
13048;SDS011;6591;51.446;5.404;2023-11-21T01:16:54;10.97;;;7.97;;
13048;SDS011;6591;51.446;5.404;2023-11-21T01:19:21;10.77;;;8.00;;
13048;SDS011;6591;51.446;5.404;2023-11-21T01:21:49;13.67;;;9.33;;
13048;SDS011;6591;51.446;5.404;2023-11-21T01:24:16;14.17;;;8.53;;
13048;SDS011;6591;51.446;5.404;2023-11-21T01:26:43;19.93;;;8.70;;
13048;SDS011;6591;51.446;5.404;2023-11-21T01:29:13;17.17;;;8.90;;
13048;SDS011;6591;51.446;5.404;2023-11-21T01:31:41;11.00;;;8.10;;
13048;SDS011;6591;51.446;5.404;2023-11-21T01:34:08;16.00;;;8.77;;
13048;SDS011;6591;51.446;5.404;2023-11-21T01:36:35;10.80;;;8.27;;
13048;SDS011;6591;51.446;5.404;2023-11-21T01:39:02;20.00;;;10.23;;
13048;SDS011;6591;51.446;5.404;2023-11-21T01:41:34;14.17;;;9.60;;
13048;SDS011;6591;51.446;5.404;2023-11-21T01:44:01;16.10;;;10.83;;
13048;SDS011;6591;51.446;5.404;2023-11-21T01:46:30;14.10;;;10.07;;
13048;SDS011;6591;51.446;5.404;2023-11-21T01:48:57;15.70;;;9.77;;
13048;SDS011;6591;51.446;5.404;2023-11-21T01:51:24;14.97;;;9.90;;
13048;SDS011;6591;51.446;5.404;2023-11-21T01:53:54;23.77;;;10.73;;
13048;SDS011;6591;51.446;5.404;2023-11-21T01:56:22;25.37;;;10.83;;
13048;SDS011;6591;51.446;5.404;2023-11-21T01:58:49;22.87;;;10.93;;
13048;SDS011;6591;51.446;5.404;2023-11-21T02:01:17;46.87;;;14.27;;
13048;SDS011;6591;51.446;5.404;2023-11-21T02:03:45;53.17;;;14.43;;
13048;SDS011;6591;51.446;5.404;2023-11-21T02:06:12;42.03;;;13.13;;
13048;SDS011;6591;51.446;5.404;2023-11-21T02:08:40;39.63;;;13.10;;
13048;SDS011;6591;51.446;5.404;2023-11-21T02:11:11;42.53;;;13.50;;
13048;SDS011;6591;51.446;5.404;2023-11-21T02:13:40;52.00;;;12.57;;
13048;SDS011;6591;51.446;5.404;2023-11-21T02:16:12;61.90;;;15.27;;
13048;SDS011;6591;51.446;5.404;2023-11-21T02:18:39;77.47;;;16.77;;
13048;SDS011;6591;51.446;5.404;2023-11-21T02:21:08;60.20;;;15.57;;
13048;SDS011;6591;51.446;5.404;2023-11-21T02:23:36;44.63;;;14.67;;
13048;SDS011;6591;51.446;5.404;2023-11-21T02:26:05;40.63;;;14.03;;
13048;SDS011;6591;51.446;5.404;2023-11-21T02:28:32;49.10;;;14.17;;
13048;SDS011;6591;51.446;5.404;2023-11-21T02:30:59;45.50;;;13.97;;
13048;SDS011;6591;51.446;5.404;2023-11-21T02:33:27;53.60;;;14.17;;
13048;SDS011;6591;51.446;5.404;2023-11-21T02:35:54;59.17;;;14.47;;
13048;SDS011;6591;51.446;5.404;2023-11-21T02:38:21;53.63;;;13.97;;
13048;SDS011;6591;51.446;5.404;2023-11-21T02:40:48;66.00;;;14.97;;
13048;SDS011;6591;51.446;5.404;2023-11-21T02:43:16;52.53;;;14.73;;
13048;SDS011;6591;51.446;5.404;2023-11-21T02:45:44;51.97;;;13.93;;
13048;SDS011;6591;51.446;5.404;2023-11-21T02:48:11;47.77;;;14.57;;
13048;SDS011;6591;51.446;5.404;2023-11-21T02:50:38;55.20;;;14.33;;
13048;SDS011;6591;51.446;5.404;2023-11-21T02:53:06;34.70;;;13.13;;
13048;SDS011;6591;51.446;5.404;2023-11-21T02:55:33;46.17;;;13.50;;
13048;SDS011;6591;51.446;5.404;2023-11-21T02:58:03;40.67;;;11.93;;
13048;SDS011;6591;51.446;5.404;2023-11-21T03:00:30;39.40;;;12.90;;
13048;SDS011;6591;51.446;5.404;2023-11-21T03:02:58;28.83;;;12.17;;
13048;SDS011;6591;51.446;5.404;2023-11-21T03:05:27;22.13;;;11.90;;
13048;SDS011;6591;51.446;5.404;2023-11-21T03:07:55;39.73;;;12.30;;
13048;SDS011;6591;51.446;5.404;2023-11-21T03:10:24;40.57;;;13.33;;
13048;SDS011;6591;51.446;5.404;2023-11-21T03:12:51;37.20;;;12.23;;
13048;SDS011;6591;51.446;5.404;2023-11-21T03:15:19;56.57;;;13.70;;
13048;SDS011;6591;51.446;5.404;2023-11-21T03:17:46;35.37;;;12.47;;
13048;SDS011;6591;51.446;5.404;2023-11-21T03:20:15;31.43;;;13.47;;
13048;SDS011;6591;51.446;5.404;2023-11-21T03:22:42;27.87;;;10.50;;
13048;SDS011;6591;51.446;5.404;2023-11-21T03:25:10;24.03;;;11.13;;
13048;SDS011;6591;51.446;5.404;2023-11-21T03:27:37;23.03;;;10.57;;
13048;SDS011;6591;51.446;5.404;2023-11-21T03:30:07;32.67;;;11.63;;
13048;SDS011;6591;51.446;5.404;2023-11-21T03:32:36;28.03;;;11.53;;
13048;SDS011;6591;51.446;5.404;2023-11-21T03:35:03;37.93;;;12.30;;
13048;SDS011;6591;51.446;5.404;2023-11-21T03:37:32;40.43;;;12.97;;
13048;SDS011;6591;51.446;5.404;2023-11-21T03:40:00;33.57;;;11.73;;
13048;SDS011;6591;51.446;5.404;2023-11-21T03:42:27;25.77;;;10.87;;
13048;SDS011;6591;51.446;5.404;2023-11-21T03:44:56;22.60;;;11.20;;
13048;SDS011;6591;51.446;5.404;2023-11-21T03:47:23;39.60;;;12.43;;
13048;SDS011;6591;51.446;5.404;2023-11-21T03:49:53;23.37;;;10.57;;
13048;SDS011;6591;51.446;5.404;2023-11-21T03:52:20;20.70;;;10.50;;
13048;SDS011;6591;51.446;5.404;2023-11-21T03:54:47;22.97;;;10.43;;
13048;SDS011;6591;51.446;5.404;2023-11-21T03:57:14;23.23;;;10.70;;
13048;SDS011;6591;51.446;5.404;2023-11-21T03:59:41;22.30;;;11.13;;
13048;SDS011;6591;51.446;5.404;2023-11-21T04:02:09;38.93;;;12.00;;
13048;SDS011;6591;51.446;5.404;2023-11-21T04:04:36;29.90;;;10.97;;
13048;SDS011;6591;51.446;5.404;2023-11-21T04:07:04;36.67;;;11.27;;
13048;SDS011;6591;51.446;5.404;2023-11-21T04:09:31;32.40;;;10.53;;
13048;SDS011;6591;51.446;5.404;2023-11-21T04:11:59;35.27;;;10.70;;
13048;SDS011;6591;51.446;5.404;2023-11-21T04:14:26;29.77;;;10.60;;
13048;SDS011;6591;51.446;5.404;2023-11-21T04:16:53;40.50;;;10.93;;
13048;SDS011;6591;51.446;5.404;2023-11-21T04:19:21;27.67;;;10.50;;
13048;SDS011;6591;51.446;5.404;2023-11-21T04:21:48;24.20;;;10.30;;
13048;SDS011;6591;51.446;5.404;2023-11-21T04:24:15;25.83;;;10.67;;
13048;SDS011;6591;51.446;5.404;2023-11-21T04:26:45;21.73;;;10.30;;
13048;SDS011;6591;51.446;5.404;2023-11-21T04:29:14;21.33;;;10.70;;
13048;SDS011;6591;51.446;5.404;2023-11-21T04:31:41;25.23;;;9.67;;
13048;SDS011;6591;51.446;5.404;2023-11-21T04:34:08;19.87;;;9.97;;
13048;SDS011;6591;51.446;5.404;2023-11-21T04:36:35;18.87;;;9.83;;
13048;SDS011;6591;51.446;5.404;2023-11-21T04:39:02;21.17;;;10.50;;
13048;SDS011;6591;51.446;5.404;2023-11-21T04:41:29;22.40;;;10.37;;
13048;SDS011;6591;51.446;5.404;2023-11-21T04:43:58;32.93;;;11.37;;
13048;SDS011;6591;51.446;5.404;2023-11-21T04:46:27;23.00;;;10.73;;
13048;SDS011;6591;51.446;5.404;2023-11-21T04:48:54;16.03;;;10.20;;
13048;SDS011;6591;51.446;5.404;2023-11-21T04:51:21;16.27;;;9.73;;
13048;SDS011;6591;51.446;5.404;2023-11-21T04:53:48;20.37;;;10.47;;
13048;SDS011;6591;51.446;5.404;2023-11-21T04:56:18;16.03;;;9.60;;
13048;SDS011;6591;51.446;5.404;2023-11-21T04:58:45;19.80;;;10.83;;
13048;SDS011;6591;51.446;5.404;2023-11-21T05:01:12;15.80;;;10.87;;
13048;SDS011;6591;51.446;5.404;2023-11-21T05:03:40;16.03;;;9.67;;
13048;SDS011;6591;51.446;5.404;2023-11-21T05:06:10;14.87;;;10.00;;
13048;SDS011;6591;51.446;5.404;2023-11-21T05:08:38;14.53;;;10.17;;
13048;SDS011;6591;51.446;5.404;2023-11-21T05:11:05;16.40;;;10.40;;
13048;SDS011;6591;51.446;5.404;2023-11-21T05:13:34;12.63;;;9.73;;
13048;SDS011;6591;51.446;5.404;2023-11-21T05:16:01;14.43;;;10.20;;
13048;SDS011;6591;51.446;5.404;2023-11-21T05:18:30;12.83;;;9.83;;
13048;SDS011;6591;51.446;5.404;2023-11-21T05:20:57;13.03;;;9.73;;
13048;SDS011;6591;51.446;5.404;2023-11-21T05:23:25;12.00;;;10.07;;
13048;SDS011;6591;51.446;5.404;2023-11-21T05:25:52;12.67;;;10.03;;
13048;SDS011;6591;51.446;5.404;2023-11-21T05:28:19;14.17;;;10.13;;
13048;SDS011;6591;51.446;5.404;2023-11-21T05:30:46;12.17;;;10.67;;
13048;SDS011;6591;51.446;5.404;2023-11-21T05:33:13;13.60;;;10.67;;
13048;SDS011;6591;51.446;5.404;2023-11-21T05:35:40;13.77;;;10.70;;
13048;SDS011;6591;51.446;5.404;2023-11-21T05:38:07;14.23;;;11.33;;
13048;SDS011;6591;51.446;5.404;2023-11-21T05:40:34;12.50;;;10.30;;
13048;SDS011;6591;51.446;5.404;2023-11-21T05:43:03;13.83;;;10.90;;
13048;SDS011;6591;51.446;5.404;2023-11-21T05:45:31;13.97;;;10.53;;
13048;SDS011;6591;51.446;5.404;2023-11-21T05:47:58;12.80;;;9.93;;
13048;SDS011;6591;51.446;5.404;2023-11-21T05:50:25;12.83;;;10.13;;
13048;SDS011;6591;51.446;5.404;2023-11-21T05:52:52;12.33;;;10.17;;
13048;SDS011;6591;51.446;5.404;2023-11-21T05:55:22;14.03;;;9.77;;
13048;SDS011;6591;51.446;5.404;2023-11-21T05:57:52;14.47;;;10.20;;
13048;SDS011;6591;51.446;5.404;2023-11-21T06:00:19;12.47;;;9.97;;
13048;SDS011;6591;51.446;5.404;2023-11-21T06:02:51;15.43;;;10.20;;
13048;SDS011;6591;51.446;5.404;2023-11-21T06:05:22;15.53;;;10.77;;
13048;SDS011;6591;51.446;5.404;2023-11-21T06:07:53;16.07;;;10.87;;
13048;SDS011;6591;51.446;5.404;2023-11-21T06:10:26;14.70;;;10.27;;
13048;SDS011;6591;51.446;5.404;2023-11-21T06:12:55;16.70;;;11.53;;
13048;SDS011;6591;51.446;5.404;2023-11-21T06:15:22;17.10;;;10.83;;
13048;SDS011;6591;51.446;5.404;2023-11-21T06:17:50;17.67;;;11.03;;
13048;SDS011;6591;51.446;5.404;2023-11-21T06:20:21;14.10;;;10.40;;
13048;SDS011;6591;51.446;5.404;2023-11-21T06:22:49;20.50;;;11.00;;
13048;SDS011;6591;51.446;5.404;2023-11-21T06:25:18;18.17;;;11.13;;
13048;SDS011;6591;51.446;5.404;2023-11-21T06:27:46;14.97;;;10.37;;
13048;SDS011;6591;51.446;5.404;2023-11-21T06:30:14;14.60;;;10.13;;
13048;SDS011;6591;51.446;5.404;2023-11-21T06:32:42;23.60;;;10.97;;
13048;SDS011;6591;51.446;5.404;2023-11-21T06:35:13;21.40;;;10.50;;
13048;SDS011;6591;51.446;5.404;2023-11-21T06:37:42;18.33;;;10.20;;
13048;SDS011;6591;51.446;5.404;2023-11-21T06:40:16;18.50;;;10.33;;
13048;SDS011;6591;51.446;5.404;2023-11-21T06:42:47;20.57;;;10.90;;
13048;SDS011;6591;51.446;5.404;2023-11-21T06:45:16;18.60;;;11.00;;
13048;SDS011;6591;51.446;5.404;2023-11-21T06:47:44;27.07;;;11.63;;
13048;SDS011;6591;51.446;5.404;2023-11-21T06:50:11;22.53;;;11.33;;
13048;SDS011;6591;51.446;5.404;2023-11-21T06:52:39;14.13;;;10.33;;
13048;SDS011;6591;51.446;5.404;2023-11-21T06:55:06;19.03;;;11.30;;
13048;SDS011;6591;51.446;5.404;2023-11-21T06:57:35;17.33;;;10.33;;
13048;SDS011;6591;51.446;5.404;2023-11-21T07:00:04;24.13;;;11.03;;
13048;SDS011;6591;51.446;5.404;2023-11-21T07:02:37;18.90;;;10.73;;
13048;SDS011;6591;51.446;5.404;2023-11-21T07:05:05;17.67;;;10.70;;
13048;SDS011;6591;51.446;5.404;2023-11-21T07:07:32;25.13;;;11.87;;
13048;SDS011;6591;51.446;5.404;2023-11-21T07:10:02;15.67;;;10.50;;
13048;SDS011;6591;51.446;5.404;2023-11-21T07:12:32;19.57;;;11.10;;
13048;SDS011;6591;51.446;5.404;2023-11-21T07:14:59;24.07;;;12.67;;
13048;SDS011;6591;51.446;5.404;2023-11-21T07:17:26;22.77;;;11.33;;
13048;SDS011;6591;51.446;5.404;2023-11-21T07:19:54;23.47;;;11.50;;
13048;SDS011;6591;51.446;5.404;2023-11-21T07:22:21;23.87;;;11.97;;
13048;SDS011;6591;51.446;5.404;2023-11-21T07:24:49;27.00;;;12.10;;
13048;SDS011;6591;51.446;5.404;2023-11-21T07:27:17;22.70;;;11.23;;
13048;SDS011;6591;51.446;5.404;2023-11-21T07:29:44;17.47;;;11.87;;
13048;SDS011;6591;51.446;5.404;2023-11-21T07:32:12;20.40;;;11.47;;
13048;SDS011;6591;51.446;5.404;2023-11-21T07:34:41;26.13;;;11.90;;
13048;SDS011;6591;51.446;5.404;2023-11-21T07:37:08;19.47;;;11.93;;
13048;SDS011;6591;51.446;5.404;2023-11-21T07:39:35;18.83;;;10.83;;
13048;SDS011;6591;51.446;5.404;2023-11-21T07:42:03;17.03;;;10.73;;
13048;SDS011;6591;51.446;5.404;2023-11-21T07:44:30;18.77;;;10.47;;
13048;SDS011;6591;51.446;5.404;2023-11-21T07:46:57;22.20;;;11.97;;
13048;SDS011;6591;51.446;5.404;2023-11-21T07:49:24;21.13;;;11.80;;
13048;SDS011;6591;51.446;5.404;2023-11-21T07:51:53;20.17;;;12.37;;
13048;SDS011;6591;51.446;5.404;2023-11-21T07:54:20;22.23;;;12.23;;
13048;SDS011;6591;51.446;5.404;2023-11-21T07:56:47;18.80;;;11.70;;
13048;SDS011;6591;51.446;5.404;2023-11-21T07:59:15;16.80;;;11.63;;
13048;SDS011;6591;51.446;5.404;2023-11-21T08:01:41;23.57;;;11.97;;
13048;SDS011;6591;51.446;5.404;2023-11-21T08:04:09;22.13;;;11.60;;
13048;SDS011;6591;51.446;5.404;2023-11-21T08:06:37;20.73;;;12.40;;
13048;SDS011;6591;51.446;5.404;2023-11-21T08:09:04;28.17;;;12.57;;
13048;SDS011;6591;51.446;5.404;2023-11-21T08:11:31;17.33;;;12.33;;
13048;SDS011;6591;51.446;5.404;2023-11-21T08:13:59;17.57;;;11.57;;
13048;SDS011;6591;51.446;5.404;2023-11-21T08:16:26;23.93;;;13.93;;
13048;SDS011;6591;51.446;5.404;2023-11-21T08:18:54;25.50;;;13.90;;
13048;SDS011;6591;51.446;5.404;2023-11-21T08:21:21;20.67;;;13.93;;
13048;SDS011;6591;51.446;5.404;2023-11-21T08:23:51;22.50;;;12.93;;
13048;SDS011;6591;51.446;5.404;2023-11-21T08:26:21;20.70;;;13.03;;
13048;SDS011;6591;51.446;5.404;2023-11-21T08:28:49;26.30;;;14.40;;
13048;SDS011;6591;51.446;5.404;2023-11-21T08:31:26;22.33;;;13.83;;
13048;SDS011;6591;51.446;5.404;2023-11-21T08:33:53;18.10;;;12.30;;
13048;SDS011;6591;51.446;5.404;2023-11-21T08:36:23;15.37;;;11.80;;
13048;SDS011;6591;51.446;5.404;2023-11-21T08:38:52;21.33;;;13.10;;
13048;SDS011;6591;51.446;5.404;2023-11-21T08:41:19;17.87;;;12.77;;
13048;SDS011;6591;51.446;5.404;2023-11-21T08:43:50;19.27;;;12.67;;
13048;SDS011;6591;51.446;5.404;2023-11-21T08:46:18;22.57;;;13.57;;
13048;SDS011;6591;51.446;5.404;2023-11-21T08:48:46;20.60;;;14.20;;
13048;SDS011;6591;51.446;5.404;2023-11-21T08:51:13;19.97;;;13.90;;
13048;SDS011;6591;51.446;5.404;2023-11-21T08:53:41;20.07;;;12.73;;
13048;SDS011;6591;51.446;5.404;2023-11-21T08:56:08;25.10;;;14.83;;
13048;SDS011;6591;51.446;5.404;2023-11-21T08:58:41;19.97;;;13.23;;
13048;SDS011;6591;51.446;5.404;2023-11-21T09:01:09;20.63;;;13.40;;
13048;SDS011;6591;51.446;5.404;2023-11-21T09:03:36;19.20;;;13.63;;
13048;SDS011;6591;51.446;5.404;2023-11-21T09:06:04;18.67;;;12.10;;
13048;SDS011;6591;51.446;5.404;2023-11-21T09:08:32;21.20;;;13.33;;
13048;SDS011;6591;51.446;5.404;2023-11-21T09:10:59;19.73;;;13.53;;
13048;SDS011;6591;51.446;5.404;2023-11-21T09:13:27;18.80;;;13.07;;
13048;SDS011;6591;51.446;5.404;2023-11-21T09:15:54;21.47;;;14.73;;
13048;SDS011;6591;51.446;5.404;2023-11-21T09:18:21;24.03;;;14.37;;
13048;SDS011;6591;51.446;5.404;2023-11-21T09:20:48;20.20;;;13.53;;
13048;SDS011;6591;51.446;5.404;2023-11-21T09:23:15;22.47;;;14.80;;
13048;SDS011;6591;51.446;5.404;2023-11-21T09:25:43;22.80;;;14.07;;
13048;SDS011;6591;51.446;5.404;2023-11-21T09:28:12;21.23;;;14.57;;
13048;SDS011;6591;51.446;5.404;2023-11-21T09:30:39;20.80;;;13.93;;
13048;SDS011;6591;51.446;5.404;2023-11-21T09:33:06;23.80;;;14.17;;
13048;SDS011;6591;51.446;5.404;2023-11-21T09:35:37;24.10;;;13.73;;
13048;SDS011;6591;51.446;5.404;2023-11-21T09:38:04;22.00;;;14.53;;
13048;SDS011;6591;51.446;5.404;2023-11-21T09:40:37;20.43;;;14.37;;
13048;SDS011;6591;51.446;5.404;2023-11-21T09:43:15;19.77;;;14.13;;
13048;SDS011;6591;51.446;5.404;2023-11-21T09:45:51;20.30;;;13.20;;
13048;SDS011;6591;51.446;5.404;2023-11-21T09:48:26;17.93;;;12.37;;
13048;SDS011;6591;51.446;5.404;2023-11-21T09:50:57;18.67;;;12.50;;
13048;SDS011;6591;51.446;5.404;2023-11-21T09:53:26;19.10;;;12.80;;
13048;SDS011;6591;51.446;5.404;2023-11-21T09:55:58;23.17;;;15.53;;
13048;SDS011;6591;51.446;5.404;2023-11-21T09:58:28;20.37;;;13.97;;
13048;SDS011;6591;51.446;5.404;2023-11-21T10:00:57;20.97;;;14.07;;
13048;SDS011;6591;51.446;5.404;2023-11-21T10:03:29;20.93;;;13.73;;
13048;SDS011;6591;51.446;5.404;2023-11-21T10:05:57;19.87;;;13.20;;
13048;SDS011;6591;51.446;5.404;2023-11-21T10:08:27;22.83;;;14.17;;
13048;SDS011;6591;51.446;5.404;2023-11-21T10:11:12;21.27;;;14.20;;
13048;SDS011;6591;51.446;5.404;2023-11-21T10:13:44;21.90;;;13.53;;
13048;SDS011;6591;51.446;5.404;2023-11-21T10:16:14;17.03;;;12.73;;
13048;SDS011;6591;51.446;5.404;2023-11-21T10:18:49;18.87;;;13.13;;
13048;SDS011;6591;51.446;5.404;2023-11-21T10:21:39;19.60;;;13.33;;
13048;SDS011;6591;51.446;5.404;2023-11-21T10:24:06;19.97;;;13.83;;
13048;SDS011;6591;51.446;5.404;2023-11-21T10:26:34;16.63;;;12.80;;
13048;SDS011;6591;51.446;5.404;2023-11-21T10:29:16;18.63;;;13.07;;
13048;SDS011;6591;51.446;5.404;2023-11-21T10:31:44;18.23;;;13.57;;
13048;SDS011;6591;51.446;5.404;2023-11-21T10:34:15;17.37;;;12.40;;
13048;SDS011;6591;51.446;5.404;2023-11-21T10:36:45;16.57;;;11.70;;
13048;SDS011;6591;51.446;5.404;2023-11-21T10:39:19;16.03;;;12.13;;
13048;SDS011;6591;51.446;5.404;2023-11-21T10:41:47;16.63;;;12.67;;
13048;SDS011;6591;51.446;5.404;2023-11-21T10:44:15;16.33;;;12.37;;
13048;SDS011;6591;51.446;5.404;2023-11-21T10:46:48;16.47;;;11.50;;
13048;SDS011;6591;51.446;5.404;2023-11-21T10:49:24;15.27;;;12.03;;
13048;SDS011;6591;51.446;5.404;2023-11-21T10:51:55;18.30;;;13.13;;
13048;SDS011;6591;51.446;5.404;2023-11-21T10:54:24;16.10;;;11.60;;
13048;SDS011;6591;51.446;5.404;2023-11-21T10:56:59;17.10;;;12.10;;
13048;SDS011;6591;51.446;5.404;2023-11-21T10:59:30;13.87;;;11.40;;
13048;SDS011;6591;51.446;5.404;2023-11-21T11:01:59;14.83;;;11.33;;
13048;SDS011;6591;51.446;5.404;2023-11-21T11:04:31;16.10;;;10.97;;
13048;SDS011;6591;51.446;5.404;2023-11-21T11:07:01;12.63;;;9.83;;
13048;SDS011;6591;51.446;5.404;2023-11-21T11:09:36;16.20;;;10.87;;
13048;SDS011;6591;51.446;5.404;2023-11-21T11:12:03;13.53;;;10.10;;
13048;SDS011;6591;51.446;5.404;2023-11-21T11:14:31;11.20;;;9.40;;
13048;SDS011;6591;51.446;5.404;2023-11-21T11:16:59;9.47;;;7.67;;
13048;SDS011;6591;51.446;5.404;2023-11-21T11:19:29;9.83;;;8.23;;
13048;SDS011;6591;51.446;5.404;2023-11-21T11:28:10;11.00;;;8.23;;
13048;SDS011;6591;51.446;5.404;2023-11-21T11:36:39;12.33;;;8.60;;
13048;SDS011;6591;51.446;5.404;2023-11-21T11:39:28;10.23;;;8.03;;
13048;SDS011;6591;51.446;5.404;2023-11-21T11:42:07;9.43;;;8.07;;
13048;SDS011;6591;51.446;5.404;2023-11-21T11:47:21;10.63;;;8.57;;
13048;SDS011;6591;51.446;5.404;2023-11-21T11:52:49;12.17;;;9.07;;
13048;SDS011;6591;51.446;5.404;2023-11-21T11:55:19;9.73;;;8.10;;
13048;SDS011;6591;51.446;5.404;2023-11-21T11:57:52;10.83;;;8.10;;
13048;SDS011;6591;51.446;5.404;2023-11-21T12:03:02;10.77;;;8.13;;
13048;SDS011;6591;51.446;5.404;2023-11-21T12:05:32;12.83;;;8.97;;
13048;SDS011;6591;51.446;5.404;2023-11-21T12:08:08;10.67;;;9.00;;
13048;SDS011;6591;51.446;5.404;2023-11-21T12:10:38;12.40;;;9.33;;
13048;SDS011;6591;51.446;5.404;2023-11-21T12:13:09;12.37;;;9.37;;
13048;SDS011;6591;51.446;5.404;2023-11-21T12:15:39;13.13;;;9.17;;
13048;SDS011;6591;51.446;5.404;2023-11-21T12:18:08;13.80;;;10.23;;
13048;SDS011;6591;51.446;5.404;2023-11-21T12:20:35;12.10;;;9.20;;
13048;SDS011;6591;51.446;5.404;2023-11-21T12:23:06;14.30;;;9.97;;
13048;SDS011;6591;51.446;5.404;2023-11-21T12:25:36;15.47;;;11.40;;
13048;SDS011;6591;51.446;5.404;2023-11-21T12:28:03;13.93;;;10.27;;
13048;SDS011;6591;51.446;5.404;2023-11-21T12:30:33;12.50;;;8.73;;
13048;SDS011;6591;51.446;5.404;2023-11-21T12:33:05;12.60;;;8.87;;
13048;SDS011;6591;51.446;5.404;2023-11-21T12:35:36;12.20;;;9.67;;
13048;SDS011;6591;51.446;5.404;2023-11-21T12:38:04;16.97;;;11.50;;
13048;SDS011;6591;51.446;5.404;2023-11-21T12:40:32;15.93;;;11.20;;
13048;SDS011;6591;51.446;5.404;2023-11-21T12:43:00;13.87;;;9.43;;
13048;SDS011;6591;51.446;5.404;2023-11-21T12:45:30;11.43;;;9.47;;
13048;SDS011;6591;51.446;5.404;2023-11-21T12:50:35;13.50;;;10.03;;
13048;SDS011;6591;51.446;5.404;2023-11-21T12:53:06;17.00;;;11.17;;
13048;SDS011;6591;51.446;5.404;2023-11-21T12:55:36;14.80;;;10.60;;
13048;SDS011;6591;51.446;5.404;2023-11-21T12:58:05;14.10;;;11.50;;
13048;SDS011;6591;51.446;5.404;2023-11-21T13:03:10;13.83;;;11.23;;
13048;SDS011;6591;51.446;5.404;2023-11-21T13:05:45;16.30;;;11.20;;
13048;SDS011;6591;51.446;5.404;2023-11-21T13:08:19;17.17;;;11.57;;
13048;SDS011;6591;51.446;5.404;2023-11-21T13:10:50;17.37;;;12.23;;
13048;SDS011;6591;51.446;5.404;2023-11-21T13:13:24;13.67;;;11.30;;
13048;SDS011;6591;51.446;5.404;2023-11-21T13:15:56;15.57;;;11.80;;
13048;SDS011;6591;51.446;5.404;2023-11-21T13:18:28;14.10;;;11.40;;
13048;SDS011;6591;51.446;5.404;2023-11-21T13:20:58;15.17;;;11.07;;
13048;SDS011;6591;51.446;5.404;2023-11-21T13:23:36;18.63;;;12.00;;
13048;SDS011;6591;51.446;5.404;2023-11-21T13:26:04;16.63;;;11.23;;
13048;SDS011;6591;51.446;5.404;2023-11-21T13:28:33;15.97;;;11.20;;
13048;SDS011;6591;51.446;5.404;2023-11-21T13:31:04;14.10;;;10.23;;
13048;SDS011;6591;51.446;5.404;2023-11-21T13:33:38;15.90;;;11.07;;
13048;SDS011;6591;51.446;5.404;2023-11-21T13:36:09;13.63;;;10.37;;
13048;SDS011;6591;51.446;5.404;2023-11-21T13:38:38;14.07;;;10.93;;
13048;SDS011;6591;51.446;5.404;2023-11-21T13:41:09;13.67;;;10.57;;
13048;SDS011;6591;51.446;5.404;2023-11-21T13:43:39;14.77;;;10.40;;
13048;SDS011;6591;51.446;5.404;2023-11-21T13:46:06;14.03;;;10.43;;
13048;SDS011;6591;51.446;5.404;2023-11-21T13:48:43;14.23;;;10.27;;
13048;SDS011;6591;51.446;5.404;2023-11-21T13:51:17;11.60;;;9.37;;
13048;SDS011;6591;51.446;5.404;2023-11-21T13:53:45;13.30;;;9.80;;
13048;SDS011;6591;51.446;5.404;2023-11-21T13:56:16;12.30;;;9.33;;
13048;SDS011;6591;51.446;5.404;2023-11-21T13:58:51;12.73;;;9.93;;
13048;SDS011;6591;51.446;5.404;2023-11-21T14:01:23;14.67;;;10.73;;
13048;SDS011;6591;51.446;5.404;2023-11-21T14:04:11;15.30;;;11.67;;
13048;SDS011;6591;51.446;5.404;2023-11-21T14:06:49;15.60;;;11.83;;
13048;SDS011;6591;51.446;5.404;2023-11-21T14:09:21;20.77;;;13.23;;
13048;SDS011;6591;51.446;5.404;2023-11-21T14:11:52;16.53;;;11.07;;
13048;SDS011;6591;51.446;5.404;2023-11-21T14:14:24;19.17;;;13.33;;
13048;SDS011;6591;51.446;5.404;2023-11-21T14:16:56;16.07;;;11.60;;
13048;SDS011;6591;51.446;5.404;2023-11-21T14:19:25;15.80;;;11.83;;
13048;SDS011;6591;51.446;5.404;2023-11-21T14:22:02;17.80;;;11.67;;
13048;SDS011;6591;51.446;5.404;2023-11-21T14:24:30;15.50;;;12.00;;
13048;SDS011;6591;51.446;5.404;2023-11-21T14:26:57;19.10;;;12.97;;
13048;SDS011;6591;51.446;5.404;2023-11-21T14:29:24;20.73;;;14.50;;
13048;SDS011;6591;51.446;5.404;2023-11-21T14:31:51;18.97;;;13.40;;
13048;SDS011;6591;51.446;5.404;2023-11-21T14:34:23;18.97;;;13.17;;
13048;SDS011;6591;51.446;5.404;2023-11-21T14:36:50;17.57;;;12.93;;
13048;SDS011;6591;51.446;5.404;2023-11-21T14:39:17;17.40;;;12.33;;
13048;SDS011;6591;51.446;5.404;2023-11-21T14:41:55;17.17;;;11.67;;
13048;SDS011;6591;51.446;5.404;2023-11-21T14:44:24;14.33;;;10.67;;
13048;SDS011;6591;51.446;5.404;2023-11-21T14:46:55;15.20;;;11.63;;
13048;SDS011;6591;51.446;5.404;2023-11-21T14:49:25;17.63;;;12.20;;
13048;SDS011;6591;51.446;5.404;2023-11-21T14:51:54;14.60;;;11.53;;
13048;SDS011;6591;51.446;5.404;2023-11-21T14:54:34;17.70;;;11.83;;
13048;SDS011;6591;51.446;5.404;2023-11-21T14:57:07;17.07;;;11.17;;
13048;SDS011;6591;51.446;5.404;2023-11-21T14:59:43;17.07;;;12.07;;
13048;SDS011;6591;51.446;5.404;2023-11-21T15:02:18;18.10;;;12.20;;
13048;SDS011;6591;51.446;5.404;2023-11-21T15:05:10;15.67;;;11.60;;
13048;SDS011;6591;51.446;5.404;2023-11-21T15:07:43;15.87;;;11.77;;
13048;SDS011;6591;51.446;5.404;2023-11-21T15:10:12;16.33;;;11.03;;
13048;SDS011;6591;51.446;5.404;2023-11-21T15:12:42;15.57;;;11.67;;
13048;SDS011;6591;51.446;5.404;2023-11-21T15:15:11;14.47;;;11.73;;